createdAt,value
2018-12-20T00:00:39.545Z,5.80
2018-12-20T00:01:39.407Z,5.90
2018-12-20T00:02:39.435Z,5.70
2018-12-20T00:03:39.375Z,6.00
2018-12-20T00:04:39.364Z,5.60
2018-12-20T00:05:39.488Z,5.90
2018-12-20T00:06:39.387Z,6.50
2018-12-20T00:07:39.434Z,5.90
2018-12-20T00:08:39.448Z,5.60
2018-12-20T00:09:39.329Z,6.10
2018-12-20T00:10:50.428Z,5.20
2018-12-20T00:11:39.436Z,5.50
2018-12-20T00:12:39.472Z,5.70
2018-12-20T00:13:39.283Z,6.00
2018-12-20T00:14:39.263Z,5.60
2018-12-20T00:15:39.334Z,5.80
2018-12-20T00:16:39.240Z,5.70
2018-12-20T00:17:39.321Z,6.10
2018-12-20T00:18:39.237Z,5.80
2018-12-20T00:19:39.237Z,5.50
2018-12-20T00:20:39.199Z,5.60
2018-12-20T00:21:39.186Z,5.30
2018-12-20T00:22:39.285Z,5.10
2018-12-20T00:23:39.178Z,5.50
2018-12-20T00:24:39.232Z,5.10
2018-12-20T00:25:39.346Z,5.40
2018-12-20T00:26:39.133Z,5.30
2018-12-20T00:27:46.191Z,5.50
2018-12-20T00:28:39.222Z,5.60
2018-12-20T00:29:39.098Z,4.50
2018-12-20T00:30:39.122Z,4.70
2018-12-20T00:31:39.075Z,4.70
2018-12-20T00:32:39.074Z,5.10
2018-12-20T00:33:39.069Z,4.70
2018-12-20T00:34:46.147Z,5.20
2018-12-20T00:35:39.050Z,4.60
2018-12-20T00:36:39.046Z,4.90
2018-12-20T00:37:39.018Z,3.90
2018-12-20T00:38:39.108Z,4.50
2018-12-20T00:39:38.998Z,4.30
2018-12-20T00:40:45.968Z,4.70
2018-12-20T00:41:39.058Z,4.80
2018-12-20T00:42:39.035Z,4.40
2018-12-20T00:43:38.960Z,4.60
2018-12-20T00:44:38.939Z,4.00
2018-12-20T00:45:38.930Z,3.80
2018-12-20T00:46:38.955Z,4.10
2018-12-20T00:47:38.940Z,4.10
2018-12-20T00:48:38.978Z,3.70
2018-12-20T00:49:38.889Z,4.50
2018-12-20T00:50:38.918Z,4.20
2018-12-20T00:51:38.871Z,4.20
2018-12-20T00:52:38.913Z,3.80
2018-12-20T00:53:38.848Z,4.50
2018-12-20T00:54:38.855Z,3.90
2018-12-20T00:55:38.832Z,3.60
2018-12-20T00:56:38.817Z,4.10
2018-12-20T00:57:38.813Z,4.40
2018-12-20T00:58:38.805Z,3.80
2018-12-20T00:59:39.038Z,3.60
2018-12-20T01:00:38.947Z,3.80
2018-12-20T01:01:38.892Z,3.60
2018-12-20T01:02:38.806Z,4.50
2018-12-20T01:03:38.753Z,3.60
2018-12-20T01:04:38.766Z,4.10
2018-12-20T01:05:38.724Z,4.00
2018-12-20T01:06:38.747Z,3.60
2018-12-20T01:07:38.697Z,4.20
2018-12-20T01:08:38.711Z,4.20
2018-12-20T01:09:38.686Z,4.40
2018-12-20T01:10:38.756Z,4.00
2018-12-20T01:11:49.250Z,4.20
2018-12-20T01:12:38.646Z,3.80
2018-12-20T01:13:38.657Z,4.20
2018-12-20T01:14:45.193Z,4.70
2018-12-20T01:15:39.642Z,4.40
2018-12-20T01:16:38.752Z,4.30
2018-12-20T01:17:38.750Z,3.90
2018-12-20T01:18:38.682Z,4.20
2018-12-20T01:19:38.710Z,4.40
2018-12-20T01:20:38.595Z,4.70
2018-12-20T01:21:38.607Z,4.00
2018-12-20T01:22:38.577Z,4.40
2018-12-20T01:23:38.568Z,4.30
2018-12-20T01:24:38.589Z,3.80
2018-12-20T01:25:38.511Z,3.60
2018-12-20T01:26:38.499Z,4.30
2018-12-20T01:27:38.516Z,4.70
2018-12-20T01:28:38.493Z,4.20
2018-12-20T01:29:38.634Z,4.50
2018-12-20T01:30:38.490Z,3.80
2018-12-20T01:31:38.515Z,4.70
2018-12-20T01:32:38.471Z,4.50
2018-12-20T01:33:38.433Z,4.20
2018-12-20T01:34:38.413Z,4.60
2018-12-20T01:35:38.441Z,4.20
2018-12-20T01:36:38.406Z,3.60
2018-12-20T01:37:38.386Z,4.60
2018-12-20T01:38:38.470Z,4.50
2018-12-20T01:39:38.426Z,4.60
2018-12-20T01:40:38.391Z,4.40
2018-12-20T01:41:38.513Z,5.20
2018-12-20T01:42:49.298Z,4.40
2018-12-20T01:43:38.466Z,5.20
2018-12-20T01:44:38.311Z,4.80
2018-12-20T01:45:38.313Z,4.70
2018-12-20T01:46:38.436Z,4.60
2018-12-20T01:47:38.321Z,4.50
2018-12-20T01:48:38.298Z,4.50
2018-12-20T01:49:38.282Z,4.60
2018-12-20T01:50:38.455Z,4.80
2018-12-20T01:51:38.237Z,4.40
2018-12-20T01:52:38.235Z,4.50
2018-12-20T01:53:38.427Z,4.20
2018-12-20T01:54:38.300Z,4.30
2018-12-20T01:55:38.396Z,4.60
2018-12-20T01:56:38.185Z,4.60
2018-12-20T01:57:38.201Z,4.80
2018-12-20T01:58:38.213Z,4.40
2018-12-20T01:59:38.169Z,4.20
2018-12-20T02:00:38.239Z,4.90
2018-12-20T02:01:38.148Z,4.60
2018-12-20T02:02:38.377Z,5.00
2018-12-20T02:03:38.177Z,4.00
2018-12-20T02:04:38.107Z,4.40
2018-12-20T02:05:38.110Z,4.70
2018-12-20T02:06:38.083Z,4.00
2018-12-20T02:07:38.102Z,4.30
2018-12-20T02:08:38.061Z,4.40
2018-12-20T02:09:38.262Z,4.80
2018-12-20T02:10:38.177Z,4.30
2018-12-20T02:11:38.069Z,4.60
2018-12-20T02:12:38.026Z,4.10
2018-12-20T02:13:49.147Z,4.50
2018-12-20T02:14:38.015Z,4.30
2018-12-20T02:15:38.017Z,4.40
2018-12-20T02:16:37.978Z,4.10
2018-12-20T02:17:38.140Z,4.80
2018-12-20T02:18:38.032Z,4.30
2018-12-20T02:19:38.125Z,4.30
2018-12-20T02:20:38.022Z,4.80
2018-12-20T02:21:38.041Z,4.80
2018-12-20T02:22:38.107Z,5.00
2018-12-20T02:23:37.948Z,4.40
2018-12-20T02:24:37.932Z,5.10
2018-12-20T02:25:37.969Z,4.60
2018-12-20T02:26:37.877Z,4.20
2018-12-20T02:27:37.867Z,4.50
2018-12-20T02:28:37.853Z,4.40
2018-12-20T02:29:37.874Z,4.90
2018-12-20T02:30:37.833Z,4.50
2018-12-20T02:31:38.044Z,4.30
2018-12-20T02:32:37.812Z,3.90
2018-12-20T02:33:37.996Z,4.30
2018-12-20T02:34:38.021Z,4.10
2018-12-20T02:35:37.994Z,4.30
2018-12-20T02:36:37.818Z,4.10
2018-12-20T02:37:37.758Z,3.40
2018-12-20T02:38:37.749Z,4.30
2018-12-20T02:39:37.738Z,3.80
2018-12-20T02:40:37.720Z,3.90
2018-12-20T02:41:37.754Z,3.50
2018-12-20T02:42:37.701Z,3.90
2018-12-20T02:43:37.688Z,3.50
2018-12-20T02:44:48.142Z,3.80
2018-12-20T02:45:37.678Z,4.40
2018-12-20T02:46:37.736Z,4.40
2018-12-20T02:47:37.855Z,3.70
2018-12-20T02:48:37.661Z,4.10
2018-12-20T02:49:37.663Z,3.30
2018-12-20T02:50:37.734Z,3.10
2018-12-20T02:51:37.833Z,3.20
2018-12-20T02:52:37.625Z,3.50
2018-12-20T02:53:37.729Z,3.00
2018-12-20T02:54:37.718Z,3.40
2018-12-20T02:55:37.568Z,3.30
2018-12-20T02:56:37.556Z,3.10
2018-12-20T02:57:37.556Z,3.30
2018-12-20T02:58:37.537Z,3.60
2018-12-20T02:59:37.677Z,3.10
2018-12-20T03:00:37.518Z,3.40
2018-12-20T03:01:37.656Z,2.90
2018-12-20T03:02:37.491Z,3.00
2018-12-20T03:03:37.501Z,3.30
2018-12-20T03:04:37.473Z,2.90
2018-12-20T03:05:37.500Z,3.30
2018-12-20T03:06:37.455Z,3.10
2018-12-20T03:07:37.436Z,3.40
2018-12-20T03:08:37.427Z,3.20
2018-12-20T03:09:37.427Z,2.70
2018-12-20T03:10:37.537Z,2.70
2018-12-20T03:11:37.417Z,2.80
2018-12-20T03:12:37.474Z,3.30
2018-12-20T03:13:37.409Z,3.00
2018-12-20T03:14:37.367Z,3.10
2018-12-20T03:15:49.212Z,3.00
2018-12-20T03:16:37.374Z,3.60
2018-12-20T03:17:37.362Z,3.10
2018-12-20T03:18:37.331Z,3.00
2018-12-20T03:19:37.604Z,3.50
2018-12-20T03:20:37.334Z,3.10
2018-12-20T03:21:37.404Z,3.10
2018-12-20T03:22:37.288Z,2.80
2018-12-20T03:23:37.436Z,3.30
2018-12-20T03:24:37.337Z,2.80
2018-12-20T03:25:37.321Z,3.10
2018-12-20T03:26:37.252Z,3.20
2018-12-20T03:27:37.233Z,3.20
2018-12-20T03:28:37.284Z,2.90
2018-12-20T03:29:37.317Z,3.20
2018-12-20T03:30:37.387Z,3.30
2018-12-20T03:31:37.270Z,3.20
2018-12-20T03:32:37.186Z,3.40
2018-12-20T03:33:37.187Z,3.50
2018-12-20T03:34:37.378Z,3.50
2018-12-20T03:35:37.195Z,3.00
2018-12-20T03:36:37.331Z,3.20
2018-12-20T03:37:37.132Z,3.30
2018-12-20T03:38:37.183Z,2.90
2018-12-20T03:39:37.109Z,3.50
2018-12-20T03:40:37.124Z,3.40
2018-12-20T03:41:37.126Z,3.30
2018-12-20T03:42:37.138Z,2.80
2018-12-20T03:43:37.095Z,3.60
2018-12-20T03:44:37.195Z,3.50
2018-12-20T03:45:37.339Z,3.40
2018-12-20T03:46:48.320Z,3.30
2018-12-20T03:47:37.147Z,3.00
2018-12-20T03:48:37.005Z,3.50
2018-12-20T03:49:37.121Z,3.60
2018-12-20T03:50:37.141Z,3.10
2018-12-20T03:51:37.159Z,3.00
2018-12-20T03:52:37.122Z,3.60
2018-12-20T03:53:36.954Z,3.50
2018-12-20T03:54:37.152Z,3.20
2018-12-20T03:55:36.969Z,3.10
2018-12-20T03:56:37.241Z,3.50
2018-12-20T03:57:36.922Z,2.80
2018-12-20T03:58:36.964Z,2.80
2018-12-20T03:59:36.976Z,3.10
2018-12-20T04:00:36.879Z,3.20
2018-12-20T04:01:36.996Z,2.80
2018-12-20T04:02:36.861Z,3.30
2018-12-20T04:03:36.877Z,3.10
2018-12-20T04:04:37.129Z,3.30
2018-12-20T04:05:36.922Z,3.10
2018-12-20T04:06:36.823Z,3.00
2018-12-20T04:07:36.806Z,3.70
2018-12-20T04:08:36.914Z,3.20
2018-12-20T04:09:36.856Z,3.00
2018-12-20T04:10:36.976Z,2.90
2018-12-20T04:11:36.987Z,3.20
2018-12-20T04:12:36.970Z,3.20
2018-12-20T04:13:36.927Z,3.50
2018-12-20T04:14:36.739Z,3.40
2018-12-20T04:15:37.935Z,3.10
2018-12-20T04:16:36.958Z,3.20
2018-12-20T04:17:47.738Z,3.60
2018-12-20T04:18:36.688Z,3.70
2018-12-20T04:19:36.676Z,4.00
2018-12-20T04:20:36.919Z,3.30
2018-12-20T04:21:36.686Z,2.90
2018-12-20T04:22:36.684Z,3.30
2018-12-20T04:23:36.833Z,3.20
2018-12-20T04:24:36.757Z,3.20
2018-12-20T04:25:36.702Z,2.90
2018-12-20T04:26:36.784Z,3.30
2018-12-20T04:27:36.691Z,3.10
2018-12-20T04:28:36.608Z,3.80
2018-12-20T04:29:36.722Z,3.30
2018-12-20T04:30:36.561Z,3.40
2018-12-20T04:31:36.550Z,3.90
2018-12-20T04:32:36.713Z,3.00
2018-12-20T04:33:36.538Z,3.50
2018-12-20T04:34:36.663Z,3.30
2018-12-20T04:35:36.786Z,3.40
2018-12-20T04:36:36.597Z,3.80
2018-12-20T04:37:36.488Z,3.30
2018-12-20T04:38:36.667Z,3.70
2018-12-20T04:39:36.470Z,3.60
2018-12-20T04:40:36.560Z,3.90
2018-12-20T04:41:36.563Z,3.40
2018-12-20T04:42:36.442Z,3.60
2018-12-20T04:43:36.465Z,3.60
2018-12-20T04:44:36.477Z,3.90
2018-12-20T04:45:36.527Z,3.60
2018-12-20T04:46:36.469Z,3.60
2018-12-20T04:47:36.420Z,3.30
2018-12-20T04:48:47.815Z,3.20
2018-12-20T04:49:36.383Z,2.70
2018-12-20T04:50:36.447Z,2.90
2018-12-20T04:51:36.378Z,2.90
2018-12-20T04:52:36.368Z,3.20
2018-12-20T04:53:36.321Z,3.10
2018-12-20T04:54:36.310Z,2.80
2018-12-20T04:55:36.488Z,2.90
2018-12-20T04:56:36.393Z,3.20
2018-12-20T04:57:36.281Z,3.40
2018-12-20T04:58:36.314Z,2.60
2018-12-20T04:59:36.256Z,3.40
2018-12-20T05:00:36.254Z,3.20
2018-12-20T05:01:36.237Z,3.20
2018-12-20T05:02:36.222Z,2.80
2018-12-20T05:03:36.379Z,3.00
2018-12-20T05:04:36.239Z,3.00
2018-12-20T05:05:36.194Z,2.80
2018-12-20T05:06:36.226Z,3.60
2018-12-20T05:07:36.459Z,3.20
2018-12-20T05:08:36.353Z,3.10
2018-12-20T05:09:36.387Z,3.20
2018-12-20T05:10:36.292Z,3.60
2018-12-20T05:11:36.185Z,2.80
2018-12-20T05:12:36.131Z,2.70
2018-12-20T05:13:36.109Z,3.30
2018-12-20T05:14:36.099Z,3.10
2018-12-20T05:15:36.093Z,3.20
2018-12-20T05:16:36.111Z,3.30
2018-12-20T05:17:36.074Z,3.40
2018-12-20T05:18:36.263Z,3.00
2018-12-20T05:19:47.475Z,3.30
2018-12-20T05:20:36.080Z,2.90
2018-12-20T05:21:36.027Z,2.90
2018-12-20T05:22:36.080Z,2.70
2018-12-20T05:23:36.085Z,3.40
2018-12-20T05:24:36.005Z,3.50
2018-12-20T05:25:36.084Z,2.80
2018-12-20T05:26:36.141Z,2.70
2018-12-20T05:27:35.972Z,3.20
2018-12-20T05:28:36.019Z,3.00
2018-12-20T05:29:36.064Z,2.70
2018-12-20T05:30:35.939Z,2.70
2018-12-20T05:31:35.918Z,2.90
2018-12-20T05:32:35.934Z,3.00
2018-12-20T05:33:36.118Z,2.80
2018-12-20T05:34:35.909Z,2.70
2018-12-20T05:35:36.119Z,3.00
2018-12-20T05:36:35.871Z,2.80
2018-12-20T05:37:35.858Z,2.50
2018-12-20T05:38:35.936Z,3.00
2018-12-20T05:39:36.011Z,2.90
2018-12-20T05:40:36.000Z,2.90
2018-12-20T05:41:35.839Z,2.70
2018-12-20T05:42:35.936Z,2.70
2018-12-20T05:43:35.809Z,2.80
2018-12-20T05:44:35.835Z,2.40
2018-12-20T05:45:35.772Z,3.10
2018-12-20T05:46:36.093Z,2.80
2018-12-20T05:47:36.022Z,3.10
2018-12-20T05:48:35.745Z,2.90
2018-12-20T05:49:35.837Z,2.60
2018-12-20T05:50:46.332Z,2.90
2018-12-20T05:51:35.718Z,2.90
2018-12-20T05:52:35.885Z,3.20
2018-12-20T05:53:35.837Z,3.50
2018-12-20T05:54:35.709Z,3.20
2018-12-20T05:55:35.670Z,2.80
2018-12-20T05:56:35.700Z,3.10
2018-12-20T05:57:35.650Z,2.80
2018-12-20T05:58:35.857Z,3.20
2018-12-20T05:59:35.675Z,3.10
2018-12-20T06:00:35.623Z,3.10
2018-12-20T06:01:35.769Z,3.10
2018-12-20T06:02:35.599Z,2.70
2018-12-20T06:03:35.877Z,3.30
2018-12-20T06:04:35.799Z,2.60
2018-12-20T06:05:35.623Z,3.00
2018-12-20T06:06:35.574Z,3.30
2018-12-20T06:07:35.546Z,3.40
2018-12-20T06:08:35.694Z,3.50
2018-12-20T06:09:35.547Z,3.10
2018-12-20T06:10:35.583Z,2.90
2018-12-20T06:11:35.516Z,3.40
2018-12-20T06:12:35.533Z,3.10
2018-12-20T06:13:35.610Z,3.40
2018-12-20T06:14:35.522Z,3.40
2018-12-20T06:15:35.461Z,3.40
2018-12-20T06:16:35.545Z,3.20
2018-12-20T06:17:35.558Z,3.80
2018-12-20T06:18:35.654Z,3.90
2018-12-20T06:19:35.443Z,3.90
2018-12-20T06:20:35.422Z,3.90
2018-12-20T06:21:47.471Z,3.80
2018-12-20T06:22:35.394Z,4.00
2018-12-20T06:23:35.376Z,4.20
2018-12-20T06:24:35.384Z,4.20
2018-12-20T06:25:35.358Z,4.90
2018-12-20T06:26:35.360Z,4.20
2018-12-20T06:27:35.372Z,4.50
2018-12-20T06:28:35.334Z,4.20
2018-12-20T06:29:35.328Z,4.30
2018-12-20T06:30:35.303Z,4.30
2018-12-20T06:31:35.293Z,3.80
2018-12-20T06:32:35.283Z,4.50
2018-12-20T06:33:35.312Z,3.90
2018-12-20T06:34:35.272Z,3.70
2018-12-20T06:35:42.241Z,3.50
2018-12-20T06:36:35.255Z,3.30
2018-12-20T06:37:35.231Z,3.30
2018-12-20T06:38:35.222Z,3.80
2018-12-20T06:39:35.256Z,2.90
2018-12-20T06:40:35.212Z,3.40
2018-12-20T06:41:35.187Z,2.60
2018-12-20T06:42:35.183Z,3.00
2018-12-20T06:43:35.174Z,3.70
2018-12-20T06:44:35.161Z,4.10
2018-12-20T06:45:35.182Z,4.90
2018-12-20T06:46:35.141Z,4.10
2018-12-20T06:47:35.133Z,3.60
2018-12-20T06:48:35.136Z,4.20
2018-12-20T06:49:35.108Z,3.70
2018-12-20T06:50:35.098Z,5.80
2018-12-20T06:51:35.125Z,6.70
2018-12-20T06:52:35.076Z,8.00
2018-12-20T06:53:35.067Z,7.50
2018-12-20T06:54:35.058Z,6.90
2018-12-20T06:55:35.053Z,5.50
2018-12-20T06:56:35.032Z,6.10
2018-12-20T06:57:35.056Z,5.30
2018-12-20T06:58:35.008Z,5.20
2018-12-20T06:59:35.003Z,5.10
2018-12-20T07:00:35.005Z,4.10
2018-12-20T07:01:34.984Z,4.40
2018-12-20T07:02:34.975Z,3.60
2018-12-20T07:03:34.998Z,3.40
2018-12-20T07:04:34.951Z,3.40
2018-12-20T07:05:34.948Z,4.00
2018-12-20T07:06:44.969Z,3.40
2018-12-20T07:07:34.920Z,3.60
2018-12-20T07:08:34.913Z,3.30
2018-12-20T07:09:34.940Z,3.70
2018-12-20T07:10:34.892Z,3.30
2018-12-20T07:11:34.890Z,3.20
2018-12-20T07:12:34.874Z,3.90
2018-12-20T07:13:34.859Z,3.90
2018-12-20T07:14:34.847Z,3.80
2018-12-20T07:15:34.936Z,3.50
2018-12-20T07:16:34.828Z,3.40
2018-12-20T07:17:34.825Z,3.50
2018-12-20T07:18:34.848Z,3.30
2018-12-20T07:19:34.800Z,3.00
2018-12-20T07:20:34.785Z,3.40
2018-12-20T07:21:34.822Z,3.50
2018-12-20T07:22:34.767Z,3.00
2018-12-20T07:23:34.765Z,3.70
2018-12-20T07:24:34.754Z,3.80
2018-12-20T07:25:34.731Z,3.50
2018-12-20T07:26:34.728Z,3.50
2018-12-20T07:27:36.327Z,3.60
2018-12-20T07:28:34.708Z,3.60
2018-12-20T07:29:34.689Z,3.60
2018-12-20T07:30:34.682Z,3.50
2018-12-20T07:31:34.669Z,3.50
2018-12-20T07:32:34.663Z,3.70
2018-12-20T07:33:34.688Z,3.90
2018-12-20T07:34:34.659Z,3.70
2018-12-20T07:35:34.644Z,3.70
2018-12-20T07:36:34.622Z,3.50
2018-12-20T07:37:46.112Z,3.50
2018-12-20T07:38:34.592Z,3.80
2018-12-20T07:39:34.620Z,3.20
2018-12-20T07:40:34.605Z,3.10
2018-12-20T07:41:34.569Z,3.70
2018-12-20T07:42:34.566Z,3.70
2018-12-20T07:43:34.563Z,3.60
2018-12-20T07:44:34.548Z,3.70
2018-12-20T07:45:34.576Z,3.60
2018-12-20T07:46:37.905Z,3.50
2018-12-20T07:47:34.498Z,3.80
2018-12-20T07:48:34.505Z,3.30
2018-12-20T07:49:34.485Z,3.70
2018-12-20T07:50:34.469Z,3.60
2018-12-20T07:51:34.526Z,3.70
2018-12-20T07:52:34.448Z,3.40
2018-12-20T07:53:34.437Z,3.70
2018-12-20T07:54:34.437Z,3.40
2018-12-20T07:55:34.420Z,3.60
2018-12-20T07:56:34.421Z,3.40
2018-12-20T07:57:34.574Z,3.30
2018-12-20T07:58:34.385Z,3.20
2018-12-20T07:59:34.375Z,3.80
2018-12-20T08:00:34.373Z,3.70
2018-12-20T08:01:34.358Z,3.40
2018-12-20T08:02:34.360Z,3.60
2018-12-20T08:03:34.368Z,3.90
2018-12-20T08:04:34.386Z,3.40
2018-12-20T08:05:34.312Z,3.50
2018-12-20T08:06:34.299Z,3.70
2018-12-20T08:07:34.294Z,3.90
2018-12-20T08:08:44.810Z,3.60
2018-12-20T08:09:34.267Z,3.30
2018-12-20T08:10:34.266Z,3.70
2018-12-20T08:11:34.255Z,4.30
2018-12-20T08:12:34.242Z,3.60
2018-12-20T08:13:34.237Z,4.00
2018-12-20T08:14:34.271Z,3.70
2018-12-20T08:15:34.205Z,3.50
2018-12-20T08:16:34.250Z,3.60
2018-12-20T08:17:34.191Z,4.00
2018-12-20T08:18:34.182Z,3.70
2018-12-20T08:19:36.475Z,3.30
2018-12-20T08:20:34.217Z,3.50
2018-12-20T08:21:34.186Z,3.70
2018-12-20T08:22:34.190Z,3.70
2018-12-20T08:23:34.123Z,3.50
2018-12-20T08:24:34.173Z,3.70
2018-12-20T08:25:34.105Z,3.20
2018-12-20T08:26:34.117Z,5.60
2018-12-20T08:27:34.081Z,5.60
2018-12-20T08:28:34.073Z,5.70
2018-12-20T08:29:34.069Z,5.10
2018-12-20T08:30:34.046Z,4.90
2018-12-20T08:31:34.053Z,4.20
2018-12-20T08:32:34.080Z,3.50
2018-12-20T08:33:34.018Z,4.00
2018-12-20T08:34:34.015Z,3.90
2018-12-20T08:35:34.032Z,3.30
2018-12-20T08:36:34.088Z,3.40
2018-12-20T08:37:33.976Z,3.40
2018-12-20T08:38:34.001Z,3.70
2018-12-20T08:39:45.032Z,4.30
2018-12-20T08:40:34.001Z,4.00
2018-12-20T08:41:33.936Z,3.70
2018-12-20T08:42:33.919Z,3.60
2018-12-20T08:43:34.776Z,4.00
2018-12-20T08:44:34.056Z,4.00
2018-12-20T08:45:34.774Z,3.50
2018-12-20T08:46:33.895Z,3.80
2018-12-20T08:47:34.770Z,3.40
2018-12-20T08:48:34.795Z,4.30
2018-12-20T08:49:34.771Z,3.90
2018-12-20T08:50:33.973Z,3.50
2018-12-20T08:51:34.771Z,3.50
2018-12-20T08:52:33.823Z,3.90
2018-12-20T08:53:33.821Z,3.60
2018-12-20T08:54:33.837Z,3.90
2018-12-20T08:55:33.795Z,4.00
2018-12-20T08:56:33.814Z,3.60
2018-12-20T08:57:33.768Z,3.80
2018-12-20T08:58:34.270Z,4.00
2018-12-20T08:59:33.743Z,3.90
2018-12-20T09:00:34.267Z,3.80
2018-12-20T09:01:33.842Z,4.10
2018-12-20T09:02:33.751Z,4.40
2018-12-20T09:03:33.705Z,3.50
2018-12-20T09:04:33.695Z,3.20
2018-12-20T09:05:33.709Z,3.50
2018-12-20T09:06:33.672Z,4.00
2018-12-20T09:07:34.213Z,4.00
2018-12-20T09:08:33.788Z,3.70
2018-12-20T09:09:33.641Z,4.10
2018-12-20T09:10:43.534Z,3.80
2018-12-20T09:11:33.633Z,4.00
2018-12-20T09:12:33.604Z,4.00
2018-12-20T09:13:33.602Z,3.80
2018-12-20T09:14:33.629Z,3.70
2018-12-20T09:15:33.577Z,3.70
2018-12-20T09:16:33.567Z,3.90
2018-12-20T09:17:33.558Z,3.60
2018-12-20T09:18:33.542Z,3.50
2018-12-20T09:19:33.533Z,4.20
2018-12-20T09:20:33.565Z,3.50
2018-12-20T09:21:33.515Z,3.20
2018-12-20T09:22:33.522Z,4.30
2018-12-20T09:23:33.496Z,4.40
2018-12-20T09:24:33.479Z,4.10
2018-12-20T09:25:33.477Z,3.10
2018-12-20T09:26:33.635Z,3.40
2018-12-20T09:27:33.454Z,3.90
2018-12-20T09:28:33.448Z,3.50
2018-12-20T09:29:33.426Z,3.50
2018-12-20T09:30:33.415Z,4.30
2018-12-20T09:31:33.410Z,4.20
2018-12-20T09:32:33.431Z,4.00
2018-12-20T09:33:33.387Z,3.70
2018-12-20T09:34:33.382Z,3.90
2018-12-20T09:35:33.364Z,3.50
2018-12-20T09:36:33.352Z,3.90
2018-12-20T09:37:33.349Z,4.10
2018-12-20T09:38:33.371Z,4.30
2018-12-20T09:39:33.327Z,3.90
2018-12-20T09:40:33.350Z,4.00
2018-12-20T09:41:43.478Z,4.20
2018-12-20T09:42:33.296Z,4.20
2018-12-20T09:43:33.284Z,3.80
2018-12-20T09:44:33.368Z,4.30
2018-12-20T09:45:33.264Z,4.20
2018-12-20T09:46:33.259Z,4.90
2018-12-20T09:47:33.280Z,4.00
2018-12-20T09:48:33.232Z,4.20
2018-12-20T09:49:33.221Z,4.50
2018-12-20T09:50:33.225Z,4.20
2018-12-20T09:51:33.231Z,4.30
2018-12-20T09:52:33.185Z,4.50
2018-12-20T09:53:33.177Z,4.70
2018-12-20T09:54:33.163Z,4.10
2018-12-20T09:55:33.154Z,4.60
2018-12-20T09:56:33.178Z,4.10
2018-12-20T09:57:33.404Z,4.80
2018-12-20T09:58:33.126Z,4.50
2018-12-20T09:59:33.112Z,4.60
2018-12-20T10:00:33.098Z,4.70
2018-12-20T10:01:33.086Z,4.60
2018-12-20T10:02:33.117Z,4.40
2018-12-20T10:03:33.069Z,4.50
2018-12-20T10:04:33.063Z,4.50
2018-12-20T10:05:33.052Z,4.00
2018-12-20T10:06:33.043Z,4.70
2018-12-20T10:07:33.026Z,4.30
2018-12-20T10:08:33.051Z,4.20
2018-12-20T10:09:33.018Z,4.30
2018-12-20T10:10:33.016Z,4.10
2018-12-20T10:11:32.991Z,4.00
2018-12-20T10:12:45.127Z,4.80
2018-12-20T10:13:32.965Z,4.60
2018-12-20T10:14:32.992Z,3.80
2018-12-20T10:15:32.948Z,4.70
2018-12-20T10:16:32.975Z,3.80
2018-12-20T10:17:32.919Z,3.70
2018-12-20T10:18:32.929Z,4.10
2018-12-20T10:19:32.906Z,3.80
2018-12-20T10:20:32.930Z,4.10
2018-12-20T10:21:32.897Z,4.30
2018-12-20T10:22:32.871Z,4.60
2018-12-20T10:23:32.857Z,5.10
2018-12-20T10:24:32.849Z,5.20
2018-12-20T10:25:32.845Z,5.00
2018-12-20T10:26:32.885Z,5.00
2018-12-20T10:27:32.818Z,5.60
2018-12-20T10:28:32.810Z,5.20
2018-12-20T10:29:32.803Z,5.10
2018-12-20T10:30:32.784Z,5.10
2018-12-20T10:31:32.778Z,5.70
2018-12-20T10:32:32.810Z,5.20
2018-12-20T10:33:32.753Z,5.80
2018-12-20T10:34:32.746Z,5.50
2018-12-20T10:35:32.732Z,5.70
2018-12-20T10:36:32.719Z,5.40
2018-12-20T10:37:32.711Z,5.90
2018-12-20T10:38:32.871Z,5.80
2018-12-20T10:39:32.690Z,5.90
2018-12-20T10:40:32.692Z,5.90
2018-12-20T10:41:32.668Z,5.10
2018-12-20T10:42:32.685Z,5.30
2018-12-20T10:43:43.887Z,5.50
2018-12-20T10:44:32.642Z,5.30
2018-12-20T10:45:32.626Z,5.20
2018-12-20T10:46:32.623Z,5.80
2018-12-20T10:47:32.630Z,5.30
2018-12-20T10:48:32.605Z,5.20
2018-12-20T10:49:32.808Z,5.30
2018-12-20T10:50:32.579Z,5.10
2018-12-20T10:51:32.726Z,4.80
2018-12-20T10:52:32.557Z,5.10
2018-12-20T10:53:32.545Z,5.10
2018-12-20T10:54:32.540Z,4.90
2018-12-20T10:55:32.630Z,5.40
2018-12-20T10:56:32.647Z,4.90
2018-12-20T10:57:32.619Z,5.00
2018-12-20T10:58:32.490Z,5.00
2018-12-20T10:59:32.524Z,6.10
2018-12-20T11:00:32.477Z,4.70
2018-12-20T11:01:32.504Z,5.40
2018-12-20T11:02:32.458Z,5.30
2018-12-20T11:03:32.439Z,5.60
2018-12-20T11:04:32.428Z,5.40
2018-12-20T11:05:32.424Z,5.40
2018-12-20T11:06:32.405Z,6.10
2018-12-20T11:07:32.438Z,6.20
2018-12-20T11:08:32.384Z,5.10
2018-12-20T11:09:32.381Z,5.20
2018-12-20T11:10:32.395Z,5.40
2018-12-20T11:11:32.371Z,5.60
2018-12-20T11:12:32.348Z,5.40
2018-12-20T11:13:32.397Z,5.40
2018-12-20T11:14:43.057Z,5.90
2018-12-20T11:15:32.316Z,5.50
2018-12-20T11:16:32.303Z,5.40
2018-12-20T11:17:37.327Z,5.40
2018-12-20T11:18:33.334Z,5.30
2018-12-20T11:19:32.280Z,5.10
2018-12-20T11:20:32.276Z,5.50
2018-12-20T11:21:32.257Z,6.00
2018-12-20T11:22:32.245Z,4.90
2018-12-20T11:23:32.235Z,5.50
2018-12-20T11:24:32.263Z,4.70
2018-12-20T11:25:32.211Z,5.30
2018-12-20T11:26:32.199Z,4.90
2018-12-20T11:27:32.189Z,4.40
2018-12-20T11:28:32.176Z,4.90
2018-12-20T11:29:32.169Z,5.00
2018-12-20T11:30:32.202Z,4.60
2018-12-20T11:31:32.153Z,4.80
2018-12-20T11:32:32.153Z,5.30
2018-12-20T11:33:32.132Z,4.40
2018-12-20T11:34:32.117Z,4.90
2018-12-20T11:35:32.108Z,4.60
2018-12-20T11:36:32.421Z,5.10
2018-12-20T11:37:32.082Z,4.40
2018-12-20T11:38:32.082Z,4.50
2018-12-20T11:39:32.077Z,4.30
2018-12-20T11:40:32.059Z,4.60
2018-12-20T11:41:32.045Z,4.70
2018-12-20T11:42:32.158Z,4.10
2018-12-20T11:43:32.029Z,5.30
2018-12-20T11:44:32.104Z,5.30
2018-12-20T11:45:42.860Z,4.60
2018-12-20T11:46:31.994Z,5.00
2018-12-20T11:47:31.983Z,5.10
2018-12-20T11:48:32.012Z,5.00
2018-12-20T11:49:31.965Z,4.60
2018-12-20T11:50:39.453Z,5.20
2018-12-20T11:51:31.936Z,4.60
2018-12-20T11:52:31.930Z,5.10
2018-12-20T11:53:31.917Z,5.00
2018-12-20T11:54:31.943Z,5.00
2018-12-20T11:55:31.914Z,4.80
2018-12-20T11:56:31.889Z,4.60
2018-12-20T11:57:31.875Z,4.90
2018-12-20T11:58:31.874Z,4.80
2018-12-20T11:59:31.858Z,5.10
2018-12-20T12:00:31.890Z,4.70
2018-12-20T12:01:31.837Z,4.80
2018-12-20T12:02:31.829Z,5.40
2018-12-20T12:03:31.834Z,5.20
2018-12-20T12:04:31.803Z,5.00
2018-12-20T12:05:31.796Z,5.30
2018-12-20T12:06:31.872Z,4.70
2018-12-20T12:07:31.897Z,4.70
2018-12-20T12:08:31.762Z,5.00
2018-12-20T12:09:31.753Z,5.10
2018-12-20T12:10:31.751Z,5.10
2018-12-20T12:11:31.734Z,5.10
2018-12-20T12:12:31.756Z,5.00
2018-12-20T12:13:31.723Z,5.10
2018-12-20T12:14:31.710Z,4.80
2018-12-20T12:15:31.690Z,5.10
2018-12-20T12:16:31.681Z,4.80
2018-12-20T12:17:31.689Z,5.60
2018-12-20T12:18:31.973Z,5.30
2018-12-20T12:19:31.652Z,5.60
2018-12-20T12:20:31.636Z,4.80
2018-12-20T12:21:41.637Z,5.60
2018-12-20T12:22:31.618Z,4.90
2018-12-20T12:23:31.609Z,5.60
2018-12-20T12:24:31.637Z,5.80
2018-12-20T12:25:31.592Z,4.90
2018-12-20T12:26:31.574Z,4.90
2018-12-20T12:27:31.563Z,5.40
2018-12-20T12:28:31.559Z,5.10
2018-12-20T12:29:31.547Z,4.90
2018-12-20T12:30:31.567Z,5.60
2018-12-20T12:31:31.525Z,4.70
2018-12-20T12:32:31.510Z,4.80
2018-12-20T12:33:31.507Z,4.90
2018-12-20T12:34:31.493Z,5.50
2018-12-20T12:35:31.481Z,5.50
2018-12-20T12:36:31.511Z,5.00
2018-12-20T12:37:31.460Z,5.20
2018-12-20T12:38:31.447Z,5.20
2018-12-20T12:39:31.444Z,5.40
2018-12-20T12:40:31.428Z,4.90
2018-12-20T12:41:31.419Z,5.00
2018-12-20T12:42:31.440Z,5.30
2018-12-20T12:43:31.396Z,4.80
2018-12-20T12:44:31.391Z,5.40
2018-12-20T12:45:31.387Z,4.90
2018-12-20T12:46:31.366Z,4.70
2018-12-20T12:47:31.355Z,4.90
2018-12-20T12:48:31.467Z,4.90
2018-12-20T12:49:31.341Z,4.90
2018-12-20T12:50:31.324Z,5.80
2018-12-20T12:51:31.319Z,5.20
2018-12-20T12:52:43.109Z,5.50
2018-12-20T12:53:31.296Z,5.60
2018-12-20T12:54:31.327Z,6.00
2018-12-20T12:55:31.277Z,5.50
2018-12-20T12:56:31.265Z,5.90
2018-12-20T12:57:31.260Z,5.30
2018-12-20T12:58:31.241Z,6.20
2018-12-20T12:59:31.233Z,5.70
2018-12-20T13:00:31.266Z,5.90
2018-12-20T13:01:31.214Z,5.90
2018-12-20T13:02:31.197Z,5.70
2018-12-20T13:03:31.197Z,5.90
2018-12-20T13:04:31.177Z,6.50
2018-12-20T13:05:31.177Z,6.30
2018-12-20T13:06:31.179Z,6.60
2018-12-20T13:07:31.150Z,5.70
2018-12-20T13:08:31.138Z,6.10
2018-12-20T13:09:31.124Z,5.90
2018-12-20T13:10:31.117Z,5.30
2018-12-20T13:11:31.142Z,6.10
2018-12-20T13:12:31.120Z,6.00
2018-12-20T13:13:31.098Z,5.30
2018-12-20T13:14:31.082Z,5.60
2018-12-20T13:15:31.062Z,5.70
2018-12-20T13:16:31.056Z,5.20
2018-12-20T13:17:31.045Z,6.10
2018-12-20T13:18:31.072Z,5.90